sensor_id;sensor_type;location;lat;lon;timestamp;P1;durP1;ratioP1;P2;durP2;ratioP2
10450;SDS011;5273;51.290;6.918;2023-08-08T00:01:48;2.10;;;1.85;;
10450;SDS011;5273;51.290;6.918;2023-08-08T00:04:16;2.58;;;2.05;;
10450;SDS011;5273;51.290;6.918;2023-08-08T00:06:43;4.80;;;2.17;;
10450;SDS011;5273;51.290;6.918;2023-08-08T00:09:09;3.10;;;2.00;;
10450;SDS011;5273;51.290;6.918;2023-08-08T00:11:36;3.65;;;2.03;;
10450;SDS011;5273;51.290;6.918;2023-08-08T00:14:03;4.07;;;2.20;;
10450;SDS011;5273;51.290;6.918;2023-08-08T00:16:30;2.17;;;1.83;;
10450;SDS011;5273;51.290;6.918;2023-08-08T00:18:57;3.45;;;2.30;;
10450;SDS011;5273;51.290;6.918;2023-08-08T00:21:25;3.42;;;2.50;;
10450;SDS011;5273;51.290;6.918;2023-08-08T00:23:52;4.72;;;2.28;;
10450;SDS011;5273;51.290;6.918;2023-08-08T00:26:18;3.67;;;2.08;;
10450;SDS011;5273;51.290;6.918;2023-08-08T00:28:45;3.33;;;1.90;;
10450;SDS011;5273;51.290;6.918;2023-08-08T00:31:12;2.70;;;2.33;;
10450;SDS011;5273;51.290;6.918;2023-08-08T00:33:42;4.88;;;2.55;;
10450;SDS011;5273;51.290;6.918;2023-08-08T00:36:08;5.60;;;2.30;;
10450;SDS011;5273;51.290;6.918;2023-08-08T00:38:36;5.70;;;2.08;;
10450;SDS011;5273;51.290;6.918;2023-08-08T00:41:03;5.40;;;2.25;;
10450;SDS011;5273;51.290;6.918;2023-08-08T00:43:30;4.18;;;2.60;;
10450;SDS011;5273;51.290;6.918;2023-08-08T00:45:57;3.78;;;2.30;;
10450;SDS011;5273;51.290;6.918;2023-08-08T00:48:24;3.65;;;1.90;;
10450;SDS011;5273;51.290;6.918;2023-08-08T00:50:51;3.80;;;2.42;;
10450;SDS011;5273;51.290;6.918;2023-08-08T00:53:18;2.72;;;2.30;;
10450;SDS011;5273;51.290;6.918;2023-08-08T00:55:49;7.35;;;2.50;;
10450;SDS011;5273;51.290;6.918;2023-08-08T00:58:17;4.95;;;2.30;;
10450;SDS011;5273;51.290;6.918;2023-08-08T01:00:44;4.32;;;2.50;;
10450;SDS011;5273;51.290;6.918;2023-08-08T01:03:10;3.08;;;2.30;;
10450;SDS011;5273;51.290;6.918;2023-08-08T01:05:38;2.95;;;2.40;;
10450;SDS011;5273;51.290;6.918;2023-08-08T01:08:14;2.85;;;2.15;;
10450;SDS011;5273;51.290;6.918;2023-08-08T01:10:44;3.85;;;2.30;;
10450;SDS011;5273;51.290;6.918;2023-08-08T01:13:14;2.20;;;2.00;;
10450;SDS011;5273;51.290;6.918;2023-08-08T01:15:43;3.65;;;2.58;;
10450;SDS011;5273;51.290;6.918;2023-08-08T01:18:12;2.55;;;2.35;;
10450;SDS011;5273;51.290;6.918;2023-08-08T01:20:41;4.97;;;2.80;;
10450;SDS011;5273;51.290;6.918;2023-08-08T01:23:11;4.28;;;2.47;;
10450;SDS011;5273;51.290;6.918;2023-08-08T01:25:43;4.40;;;2.35;;
10450;SDS011;5273;51.290;6.918;2023-08-08T01:28:11;6.57;;;2.88;;
10450;SDS011;5273;51.290;6.918;2023-08-08T01:30:39;4.32;;;2.58;;
10450;SDS011;5273;51.290;6.918;2023-08-08T01:33:07;4.40;;;2.50;;
10450;SDS011;5273;51.290;6.918;2023-08-08T01:35:35;3.22;;;2.38;;
10450;SDS011;5273;51.290;6.918;2023-08-08T01:38:07;5.68;;;2.67;;
10450;SDS011;5273;51.290;6.918;2023-08-08T01:40:37;3.00;;;2.60;;
10450;SDS011;5273;51.290;6.918;2023-08-08T01:43:07;6.45;;;2.25;;
10450;SDS011;5273;51.290;6.918;2023-08-08T01:45:35;3.10;;;2.60;;
10450;SDS011;5273;51.290;6.918;2023-08-08T01:48:05;4.53;;;2.63;;
10450;SDS011;5273;51.290;6.918;2023-08-08T01:50:33;2.83;;;2.40;;
10450;SDS011;5273;51.290;6.918;2023-08-08T01:53:00;6.10;;;2.70;;
10450;SDS011;5273;51.290;6.918;2023-08-08T01:55:27;3.28;;;2.50;;
10450;SDS011;5273;51.290;6.918;2023-08-08T01:57:54;4.03;;;2.40;;
10450;SDS011;5273;51.290;6.918;2023-08-08T02:00:21;5.70;;;2.58;;
10450;SDS011;5273;51.290;6.918;2023-08-08T02:02:48;3.25;;;2.03;;
10450;SDS011;5273;51.290;6.918;2023-08-08T02:05:14;4.68;;;2.90;;
10450;SDS011;5273;51.290;6.918;2023-08-08T02:07:41;5.38;;;2.85;;
10450;SDS011;5273;51.290;6.918;2023-08-08T02:10:08;2.85;;;2.38;;
10450;SDS011;5273;51.290;6.918;2023-08-08T02:12:35;4.30;;;2.53;;
10450;SDS011;5273;51.290;6.918;2023-08-08T02:15:02;6.00;;;2.50;;
10450;SDS011;5273;51.290;6.918;2023-08-08T02:17:31;3.78;;;2.50;;
10450;SDS011;5273;51.290;6.918;2023-08-08T02:19:58;4.32;;;2.50;;
10450;SDS011;5273;51.290;6.918;2023-08-08T02:22:25;7.28;;;2.90;;
10450;SDS011;5273;51.290;6.918;2023-08-08T02:24:51;3.63;;;2.38;;
10450;SDS011;5273;51.290;6.918;2023-08-08T02:27:18;2.90;;;2.40;;
10450;SDS011;5273;51.290;6.918;2023-08-08T02:29:45;4.13;;;2.45;;
10450;SDS011;5273;51.290;6.918;2023-08-08T02:32:12;8.60;;;2.80;;
10450;SDS011;5273;51.290;6.918;2023-08-08T02:34:40;2.83;;;2.40;;
10450;SDS011;5273;51.290;6.918;2023-08-08T02:37:07;3.90;;;2.50;;
10450;SDS011;5273;51.290;6.918;2023-08-08T02:39:34;6.15;;;2.63;;
10450;SDS011;5273;51.290;6.918;2023-08-08T02:42:01;5.10;;;2.58;;
10450;SDS011;5273;51.290;6.918;2023-08-08T02:44:28;6.82;;;2.50;;
10450;SDS011;5273;51.290;6.918;2023-08-08T02:46:54;8.50;;;3.03;;
10450;SDS011;5273;51.290;6.918;2023-08-08T02:49:21;4.10;;;2.22;;
10450;SDS011;5273;51.290;6.918;2023-08-08T02:51:49;3.03;;;2.60;;
10450;SDS011;5273;51.290;6.918;2023-08-08T02:54:16;5.47;;;2.47;;
10450;SDS011;5273;51.290;6.918;2023-08-08T02:56:43;3.45;;;2.47;;
10450;SDS011;5273;51.290;6.918;2023-08-08T02:59:10;3.47;;;2.42;;
10450;SDS011;5273;51.290;6.918;2023-08-08T03:01:37;6.28;;;2.80;;
10450;SDS011;5273;51.290;6.918;2023-08-08T03:04:04;4.85;;;2.63;;
10450;SDS011;5273;51.290;6.918;2023-08-08T03:06:31;8.43;;;2.92;;
10450;SDS011;5273;51.290;6.918;2023-08-08T03:08:59;3.50;;;2.70;;
10450;SDS011;5273;51.290;6.918;2023-08-08T03:11:26;2.63;;;2.42;;
10450;SDS011;5273;51.290;6.918;2023-08-08T03:13:53;3.90;;;2.20;;
10450;SDS011;5273;51.290;6.918;2023-08-08T03:16:20;3.92;;;2.50;;
10450;SDS011;5273;51.290;6.918;2023-08-08T03:18:46;4.82;;;3.00;;
10450;SDS011;5273;51.290;6.918;2023-08-08T03:21:13;3.25;;;2.30;;
10450;SDS011;5273;51.290;6.918;2023-08-08T03:23:40;5.97;;;2.42;;
10450;SDS011;5273;51.290;6.918;2023-08-08T03:26:08;5.97;;;2.72;;
10450;SDS011;5273;51.290;6.918;2023-08-08T03:28:35;2.78;;;2.45;;
10450;SDS011;5273;51.290;6.918;2023-08-08T03:31:02;6.72;;;2.95;;
10450;SDS011;5273;51.290;6.918;2023-08-08T03:33:29;6.75;;;2.55;;
10450;SDS011;5273;51.290;6.918;2023-08-08T03:35:56;3.03;;;2.72;;
10450;SDS011;5273;51.290;6.918;2023-08-08T03:38:22;3.35;;;2.60;;
10450;SDS011;5273;51.290;6.918;2023-08-08T03:40:50;3.80;;;2.33;;
10450;SDS011;5273;51.290;6.918;2023-08-08T03:43:18;7.22;;;2.80;;
10450;SDS011;5273;51.290;6.918;2023-08-08T03:45:45;6.35;;;2.60;;
10450;SDS011;5273;51.290;6.918;2023-08-08T03:48:12;6.20;;;2.80;;
10450;SDS011;5273;51.290;6.918;2023-08-08T03:50:39;4.30;;;2.70;;
10450;SDS011;5273;51.290;6.918;2023-08-08T03:53:05;5.57;;;2.75;;
10450;SDS011;5273;51.290;6.918;2023-08-08T03:55:32;5.45;;;2.97;;
10450;SDS011;5273;51.290;6.918;2023-08-08T03:57:59;7.70;;;2.42;;
10450;SDS011;5273;51.290;6.918;2023-08-08T04:00:27;3.85;;;2.28;;
10450;SDS011;5273;51.290;6.918;2023-08-08T04:02:54;4.95;;;2.50;;
10450;SDS011;5273;51.290;6.918;2023-08-08T04:05:21;4.32;;;2.38;;
10450;SDS011;5273;51.290;6.918;2023-08-08T04:07:48;5.20;;;2.97;;
10450;SDS011;5273;51.290;6.918;2023-08-08T04:10:15;9.00;;;2.85;;
10450;SDS011;5273;51.290;6.918;2023-08-08T04:12:42;6.55;;;2.58;;
10450;SDS011;5273;51.290;6.918;2023-08-08T04:15:09;3.90;;;2.60;;
10450;SDS011;5273;51.290;6.918;2023-08-08T04:17:37;6.60;;;3.03;;
10450;SDS011;5273;51.290;6.918;2023-08-08T04:20:04;7.70;;;3.45;;
10450;SDS011;5273;51.290;6.918;2023-08-08T04:22:32;8.73;;;2.80;;
10450;SDS011;5273;51.290;6.918;2023-08-08T04:24:59;7.82;;;3.28;;
10450;SDS011;5273;51.290;6.918;2023-08-08T04:27:26;5.60;;;2.90;;
10450;SDS011;5273;51.290;6.918;2023-08-08T04:29:52;6.53;;;3.22;;
10450;SDS011;5273;51.290;6.918;2023-08-08T04:32:19;7.47;;;4.10;;
10450;SDS011;5273;51.290;6.918;2023-08-08T04:34:47;5.22;;;3.28;;
10450;SDS011;5273;51.290;6.918;2023-08-08T04:37:14;6.72;;;3.35;;
10450;SDS011;5273;51.290;6.918;2023-08-08T04:39:41;5.75;;;3.83;;
10450;SDS011;5273;51.290;6.918;2023-08-08T04:42:07;6.45;;;3.60;;
10450;SDS011;5273;51.290;6.918;2023-08-08T04:44:34;7.68;;;3.95;;
10450;SDS011;5273;51.290;6.918;2023-08-08T04:47:01;7.80;;;4.28;;
10450;SDS011;5273;51.290;6.918;2023-08-08T04:49:28;7.70;;;4.25;;
10450;SDS011;5273;51.290;6.918;2023-08-08T04:51:56;12.73;;;4.57;;
10450;SDS011;5273;51.290;6.918;2023-08-08T04:54:23;7.55;;;4.28;;
10450;SDS011;5273;51.290;6.918;2023-08-08T04:56:50;8.38;;;4.10;;
10450;SDS011;5273;51.290;6.918;2023-08-08T04:59:17;11.85;;;4.25;;
10450;SDS011;5273;51.290;6.918;2023-08-08T05:01:43;8.13;;;4.15;;
10450;SDS011;5273;51.290;6.918;2023-08-08T05:04:10;8.10;;;4.32;;
10450;SDS011;5273;51.290;6.918;2023-08-08T05:06:37;8.95;;;4.57;;
10450;SDS011;5273;51.290;6.918;2023-08-08T05:09:05;11.13;;;4.90;;
10450;SDS011;5273;51.290;6.918;2023-08-08T05:11:34;8.55;;;5.07;;
10450;SDS011;5273;51.290;6.918;2023-08-08T05:14:01;8.90;;;4.55;;
10450;SDS011;5273;51.290;6.918;2023-08-08T05:16:28;10.30;;;4.60;;
10450;SDS011;5273;51.290;6.918;2023-08-08T05:18:55;11.27;;;4.90;;
10450;SDS011;5273;51.290;6.918;2023-08-08T05:21:21;10.45;;;4.80;;
10450;SDS011;5273;51.290;6.918;2023-08-08T05:23:49;8.63;;;4.80;;
10450;SDS011;5273;51.290;6.918;2023-08-08T05:26:18;9.25;;;5.18;;
10450;SDS011;5273;51.290;6.918;2023-08-08T05:28:44;11.23;;;4.70;;
10450;SDS011;5273;51.290;6.918;2023-08-08T05:31:11;8.40;;;4.88;;
10450;SDS011;5273;51.290;6.918;2023-08-08T05:33:38;8.40;;;5.28;;
10450;SDS011;5273;51.290;6.918;2023-08-08T05:36:05;9.00;;;5.10;;
10450;SDS011;5273;51.290;6.918;2023-08-08T05:38:31;11.00;;;5.72;;
10450;SDS011;5273;51.290;6.918;2023-08-08T05:40:58;13.13;;;6.18;;
10450;SDS011;5273;51.290;6.918;2023-08-08T05:43:27;12.68;;;5.70;;
10450;SDS011;5273;51.290;6.918;2023-08-08T05:45:54;13.48;;;6.20;;
10450;SDS011;5273;51.290;6.918;2023-08-08T05:48:20;10.80;;;5.22;;
10450;SDS011;5273;51.290;6.918;2023-08-08T05:50:47;11.07;;;5.82;;
10450;SDS011;5273;51.290;6.918;2023-08-08T05:53:14;14.93;;;5.68;;
10450;SDS011;5273;51.290;6.918;2023-08-08T05:55:41;10.00;;;4.90;;
10450;SDS011;5273;51.290;6.918;2023-08-08T05:58:08;12.38;;;6.18;;
10450;SDS011;5273;51.290;6.918;2023-08-08T06:00:36;13.73;;;6.22;;
10450;SDS011;5273;51.290;6.918;2023-08-08T06:03:03;8.85;;;6.22;;
10450;SDS011;5273;51.290;6.918;2023-08-08T06:05:30;9.18;;;5.85;;
10450;SDS011;5273;51.290;6.918;2023-08-08T06:07:57;10.75;;;6.38;;
10450;SDS011;5273;51.290;6.918;2023-08-08T06:10:24;15.30;;;6.20;;
10450;SDS011;5273;51.290;6.918;2023-08-08T06:12:51;13.57;;;7.07;;
10450;SDS011;5273;51.290;6.918;2023-08-08T06:15:18;16.38;;;6.38;;
10450;SDS011;5273;51.290;6.918;2023-08-08T06:17:46;12.20;;;5.97;;
10450;SDS011;5273;51.290;6.918;2023-08-08T06:20:13;11.32;;;6.80;;
10450;SDS011;5273;51.290;6.918;2023-08-08T06:22:41;16.48;;;6.47;;
10450;SDS011;5273;51.290;6.918;2023-08-08T06:25:08;16.73;;;6.93;;
10450;SDS011;5273;51.290;6.918;2023-08-08T06:27:36;13.15;;;7.22;;
10450;SDS011;5273;51.290;6.918;2023-08-08T06:30:03;17.88;;;6.97;;
10450;SDS011;5273;51.290;6.918;2023-08-08T06:32:31;9.82;;;5.95;;
10450;SDS011;5273;51.290;6.918;2023-08-08T06:34:59;11.38;;;6.30;;
10450;SDS011;5273;51.290;6.918;2023-08-08T06:37:25;14.23;;;6.72;;
10450;SDS011;5273;51.290;6.918;2023-08-08T06:39:53;9.60;;;6.30;;
10450;SDS011;5273;51.290;6.918;2023-08-08T06:42:19;13.95;;;5.88;;
10450;SDS011;5273;51.290;6.918;2023-08-08T06:44:46;13.35;;;6.28;;
10450;SDS011;5273;51.290;6.918;2023-08-08T06:47:13;12.43;;;5.65;;
10450;SDS011;5273;51.290;6.918;2023-08-08T06:49:40;7.78;;;5.40;;
10450;SDS011;5273;51.290;6.918;2023-08-08T06:52:08;10.57;;;5.72;;
10450;SDS011;5273;51.290;6.918;2023-08-08T06:54:35;8.77;;;6.05;;
10450;SDS011;5273;51.290;6.918;2023-08-08T06:57:02;15.15;;;6.28;;
10450;SDS011;5273;51.290;6.918;2023-08-08T06:59:29;12.18;;;6.00;;
10450;SDS011;5273;51.290;6.918;2023-08-08T07:01:56;12.73;;;5.90;;
10450;SDS011;5273;51.290;6.918;2023-08-08T07:04:23;16.95;;;6.63;;
10450;SDS011;5273;51.290;6.918;2023-08-08T07:06:50;14.40;;;5.15;;
10450;SDS011;5273;51.290;6.918;2023-08-08T07:09:18;14.20;;;5.63;;
10450;SDS011;5273;51.290;6.918;2023-08-08T07:11:45;11.40;;;5.75;;
10450;SDS011;5273;51.290;6.918;2023-08-08T07:14:11;11.40;;;5.72;;
10450;SDS011;5273;51.290;6.918;2023-08-08T07:16:38;6.60;;;4.63;;
10450;SDS011;5273;51.290;6.918;2023-08-08T07:19:05;10.27;;;5.07;;
10450;SDS011;5273;51.290;6.918;2023-08-08T07:21:32;10.88;;;4.95;;
10450;SDS011;5273;51.290;6.918;2023-08-08T07:23:58;10.77;;;4.80;;
10450;SDS011;5273;51.290;6.918;2023-08-08T07:26:27;7.70;;;4.40;;
10450;SDS011;5273;51.290;6.918;2023-08-08T07:28:53;6.88;;;4.32;;
10450;SDS011;5273;51.290;6.918;2023-08-08T07:31:20;12.82;;;4.53;;
10450;SDS011;5273;51.290;6.918;2023-08-08T07:33:47;7.40;;;4.20;;
10450;SDS011;5273;51.290;6.918;2023-08-08T07:36:14;8.70;;;4.03;;
10450;SDS011;5273;51.290;6.918;2023-08-08T07:38:41;8.30;;;4.20;;
10450;SDS011;5273;51.290;6.918;2023-08-08T07:41:07;6.85;;;3.60;;
10450;SDS011;5273;51.290;6.918;2023-08-08T07:43:36;7.18;;;3.45;;
10450;SDS011;5273;51.290;6.918;2023-08-08T07:46:03;6.00;;;3.50;;
10450;SDS011;5273;51.290;6.918;2023-08-08T07:48:30;8.75;;;3.47;;
10450;SDS011;5273;51.290;6.918;2023-08-08T07:50:57;6.95;;;3.80;;
10450;SDS011;5273;51.290;6.918;2023-08-08T07:53:24;8.73;;;3.97;;
10450;SDS011;5273;51.290;6.918;2023-08-08T07:55:51;8.48;;;4.75;;
10450;SDS011;5273;51.290;6.918;2023-08-08T07:58:18;5.57;;;3.00;;
10450;SDS011;5273;51.290;6.918;2023-08-08T08:00:48;7.50;;;3.08;;
10450;SDS011;5273;51.290;6.918;2023-08-08T08:03:14;7.15;;;3.22;;
10450;SDS011;5273;51.290;6.918;2023-08-08T08:05:41;6.15;;;3.38;;
10450;SDS011;5273;51.290;6.918;2023-08-08T08:08:08;4.88;;;3.08;;
10450;SDS011;5273;51.290;6.918;2023-08-08T08:10:35;10.23;;;3.60;;
10450;SDS011;5273;51.290;6.918;2023-08-08T08:13:02;7.07;;;3.22;;
10450;SDS011;5273;51.290;6.918;2023-08-08T08:15:29;5.55;;;2.60;;
10450;SDS011;5273;51.290;6.918;2023-08-08T08:17:57;4.95;;;2.83;;
10450;SDS011;5273;51.290;6.918;2023-08-08T08:20:24;10.45;;;2.80;;
10450;SDS011;5273;51.290;6.918;2023-08-08T08:22:51;4.65;;;2.90;;
10450;SDS011;5273;51.290;6.918;2023-08-08T08:25:17;5.63;;;2.50;;
10450;SDS011;5273;51.290;6.918;2023-08-08T08:27:45;5.95;;;2.97;;
10450;SDS011;5273;51.290;6.918;2023-08-08T08:30:12;7.50;;;3.40;;
10450;SDS011;5273;51.290;6.918;2023-08-08T08:32:39;5.78;;;2.95;;
10450;SDS011;5273;51.290;6.918;2023-08-08T08:35:09;8.27;;;3.20;;
10450;SDS011;5273;51.290;6.918;2023-08-08T08:37:37;6.75;;;2.90;;
10450;SDS011;5273;51.290;6.918;2023-08-08T08:40:05;8.50;;;2.72;;
10450;SDS011;5273;51.290;6.918;2023-08-08T08:42:34;6.20;;;2.47;;
10450;SDS011;5273;51.290;6.918;2023-08-08T08:45:01;5.10;;;2.70;;
10450;SDS011;5273;51.290;6.918;2023-08-08T08:47:30;5.47;;;3.03;;
10450;SDS011;5273;51.290;6.918;2023-08-08T08:49:57;6.35;;;2.50;;
10450;SDS011;5273;51.290;6.918;2023-08-08T08:52:27;6.63;;;2.60;;
10450;SDS011;5273;51.290;6.918;2023-08-08T08:54:54;5.13;;;2.45;;
10450;SDS011;5273;51.290;6.918;2023-08-08T08:57:21;4.82;;;2.08;;
10450;SDS011;5273;51.290;6.918;2023-08-08T08:59:49;8.10;;;2.97;;
10450;SDS011;5273;51.290;6.918;2023-08-08T09:02:16;5.93;;;2.50;;
10450;SDS011;5273;51.290;6.918;2023-08-08T09:04:44;7.22;;;2.00;;
10450;SDS011;5273;51.290;6.918;2023-08-08T09:07:11;10.10;;;2.45;;
10450;SDS011;5273;51.290;6.918;2023-08-08T09:09:40;6.18;;;2.40;;
10450;SDS011;5273;51.290;6.918;2023-08-08T09:12:09;7.30;;;2.50;;
10450;SDS011;5273;51.290;6.918;2023-08-08T09:14:39;5.55;;;2.65;;
10450;SDS011;5273;51.290;6.918;2023-08-08T09:17:10;8.50;;;2.90;;
10450;SDS011;5273;51.290;6.918;2023-08-08T09:19:37;6.47;;;2.80;;
10450;SDS011;5273;51.290;6.918;2023-08-08T09:22:04;7.97;;;2.97;;
10450;SDS011;5273;51.290;6.918;2023-08-08T09:24:31;5.35;;;3.30;;
10450;SDS011;5273;51.290;6.918;2023-08-08T09:26:59;7.07;;;2.75;;
10450;SDS011;5273;51.290;6.918;2023-08-08T09:29:26;7.35;;;2.90;;
10450;SDS011;5273;51.290;6.918;2023-08-08T09:31:53;5.93;;;2.60;;
10450;SDS011;5273;51.290;6.918;2023-08-08T09:34:23;7.63;;;2.80;;
10450;SDS011;5273;51.290;6.918;2023-08-08T09:36:51;5.00;;;2.42;;
10450;SDS011;5273;51.290;6.918;2023-08-08T09:39:19;6.45;;;2.80;;
10450;SDS011;5273;51.290;6.918;2023-08-08T09:41:46;7.53;;;3.05;;
10450;SDS011;5273;51.290;6.918;2023-08-08T09:44:14;5.55;;;2.80;;
10450;SDS011;5273;51.290;6.918;2023-08-08T09:46:42;7.00;;;2.50;;
10450;SDS011;5273;51.290;6.918;2023-08-08T09:49:09;7.47;;;2.88;;
10450;SDS011;5273;51.290;6.918;2023-08-08T09:51:37;6.32;;;2.40;;
10450;SDS011;5273;51.290;6.918;2023-08-08T09:54:04;6.35;;;3.13;;
10450;SDS011;5273;51.290;6.918;2023-08-08T09:56:32;7.45;;;2.67;;
10450;SDS011;5273;51.290;6.918;2023-08-08T09:58:59;9.30;;;2.50;;
10450;SDS011;5273;51.290;6.918;2023-08-08T10:01:28;7.15;;;2.70;;
10450;SDS011;5273;51.290;6.918;2023-08-08T10:03:56;4.45;;;2.22;;
10450;SDS011;5273;51.290;6.918;2023-08-08T10:06:35;5.22;;;2.40;;
10450;SDS011;5273;51.290;6.918;2023-08-08T10:09:04;7.07;;;2.25;;
10450;SDS011;5273;51.290;6.918;2023-08-08T10:11:40;4.70;;;2.28;;
10450;SDS011;5273;51.290;6.918;2023-08-08T10:14:12;4.40;;;2.58;;
10450;SDS011;5273;51.290;6.918;2023-08-08T10:16:46;7.72;;;2.20;;
10450;SDS011;5273;51.290;6.918;2023-08-08T10:19:22;6.40;;;2.75;;
10450;SDS011;5273;51.290;6.918;2023-08-08T10:21:55;4.28;;;2.17;;
10450;SDS011;5273;51.290;6.918;2023-08-08T10:24:24;6.50;;;2.53;;
10450;SDS011;5273;51.290;6.918;2023-08-08T10:26:51;6.80;;;2.42;;
10450;SDS011;5273;51.290;6.918;2023-08-08T10:29:19;4.72;;;2.50;;
10450;SDS011;5273;51.290;6.918;2023-08-08T10:31:59;2.22;;;1.92;;
10450;SDS011;5273;51.290;6.918;2023-08-08T10:34:36;6.00;;;2.38;;
10450;SDS011;5273;51.290;6.918;2023-08-08T10:37:04;4.15;;;2.00;;
10450;SDS011;5273;51.290;6.918;2023-08-08T10:39:31;5.90;;;2.40;;
10450;SDS011;5273;51.290;6.918;2023-08-08T10:42:00;4.15;;;2.25;;
10450;SDS011;5273;51.290;6.918;2023-08-08T10:44:40;4.18;;;2.17;;
10450;SDS011;5273;51.290;6.918;2023-08-08T10:47:14;4.10;;;2.08;;
10450;SDS011;5273;51.290;6.918;2023-08-08T10:49:58;4.65;;;2.00;;
10450;SDS011;5273;51.290;6.918;2023-08-08T10:52:29;6.55;;;2.03;;
10450;SDS011;5273;51.290;6.918;2023-08-08T10:55:01;5.50;;;2.15;;
10450;SDS011;5273;51.290;6.918;2023-08-08T10:57:34;2.97;;;2.30;;
10450;SDS011;5273;51.290;6.918;2023-08-08T11:00:16;3.72;;;2.53;;
10450;SDS011;5273;51.290;6.918;2023-08-08T11:02:53;6.75;;;2.40;;
10450;SDS011;5273;51.290;6.918;2023-08-08T11:05:23;5.80;;;2.63;;
10450;SDS011;5273;51.290;6.918;2023-08-08T11:07:57;5.78;;;2.75;;
10450;SDS011;5273;51.290;6.918;2023-08-08T11:10:24;6.45;;;2.50;;
10450;SDS011;5273;51.290;6.918;2023-08-08T11:12:56;8.25;;;2.72;;
10450;SDS011;5273;51.290;6.918;2023-08-08T11:15:31;6.68;;;2.60;;
10450;SDS011;5273;51.290;6.918;2023-08-08T11:18:00;8.00;;;2.95;;
10450;SDS011;5273;51.290;6.918;2023-08-08T11:20:38;6.20;;;2.67;;
10450;SDS011;5273;51.290;6.918;2023-08-08T11:23:12;4.25;;;2.33;;
10450;SDS011;5273;51.290;6.918;2023-08-08T11:25:48;4.47;;;2.40;;
10450;SDS011;5273;51.290;6.918;2023-08-08T11:28:26;4.03;;;2.65;;
10450;SDS011;5273;51.290;6.918;2023-08-08T11:30:55;5.32;;;2.70;;
10450;SDS011;5273;51.290;6.918;2023-08-08T11:33:32;5.90;;;2.50;;
10450;SDS011;5273;51.290;6.918;2023-08-08T11:36:01;5.22;;;2.22;;
10450;SDS011;5273;51.290;6.918;2023-08-08T11:38:42;6.95;;;2.90;;
10450;SDS011;5273;51.290;6.918;2023-08-08T11:41:09;5.28;;;2.58;;
10450;SDS011;5273;51.290;6.918;2023-08-08T11:43:37;4.07;;;2.38;;
10450;SDS011;5273;51.290;6.918;2023-08-08T11:46:04;4.38;;;2.83;;
10450;SDS011;5273;51.290;6.918;2023-08-08T11:48:36;5.85;;;2.60;;
10450;SDS011;5273;51.290;6.918;2023-08-08T11:51:03;3.58;;;2.33;;
10450;SDS011;5273;51.290;6.918;2023-08-08T11:53:30;5.20;;;2.20;;
10450;SDS011;5273;51.290;6.918;2023-08-08T11:55:57;7.32;;;2.50;;
10450;SDS011;5273;51.290;6.918;2023-08-08T11:58:25;3.65;;;2.08;;
10450;SDS011;5273;51.290;6.918;2023-08-08T12:00:52;9.13;;;2.67;;
10450;SDS011;5273;51.290;6.918;2023-08-08T12:03:20;3.95;;;2.50;;
10450;SDS011;5273;51.290;6.918;2023-08-08T12:05:48;5.55;;;2.40;;
10450;SDS011;5273;51.290;6.918;2023-08-08T12:08:17;8.35;;;2.53;;
10450;SDS011;5273;51.290;6.918;2023-08-08T12:10:51;5.72;;;2.40;;
10450;SDS011;5273;51.290;6.918;2023-08-08T12:13:24;4.28;;;2.47;;
10450;SDS011;5273;51.290;6.918;2023-08-08T12:16:06;5.07;;;2.47;;
10450;SDS011;5273;51.290;6.918;2023-08-08T12:18:43;5.53;;;2.60;;
10450;SDS011;5273;51.290;6.918;2023-08-08T12:21:23;3.85;;;2.60;;
10450;SDS011;5273;51.290;6.918;2023-08-08T12:23:56;6.43;;;2.60;;
10450;SDS011;5273;51.290;6.918;2023-08-08T12:26:31;6.57;;;2.70;;
10450;SDS011;5273;51.290;6.918;2023-08-08T12:29:06;4.65;;;2.72;;
10450;SDS011;5273;51.290;6.918;2023-08-08T12:31:33;5.57;;;2.63;;
10450;SDS011;5273;51.290;6.918;2023-08-08T12:34:10;2.50;;;2.08;;
10450;SDS011;5273;51.290;6.918;2023-08-08T12:36:40;4.75;;;2.10;;
10450;SDS011;5273;51.290;6.918;2023-08-08T12:39:15;6.50;;;2.28;;
10450;SDS011;5273;51.290;6.918;2023-08-08T12:41:56;5.22;;;2.13;;
10450;SDS011;5273;51.290;6.918;2023-08-08T12:44:28;6.72;;;2.78;;
10450;SDS011;5273;51.290;6.918;2023-08-08T12:46:59;3.15;;;2.03;;
10450;SDS011;5273;51.290;6.918;2023-08-08T12:49:35;3.88;;;2.28;;
10450;SDS011;5273;51.290;6.918;2023-08-08T12:52:07;4.75;;;2.45;;
10450;SDS011;5273;51.290;6.918;2023-08-08T12:54:34;1.98;;;1.70;;
10450;SDS011;5273;51.290;6.918;2023-08-08T12:57:06;5.80;;;2.00;;
10450;SDS011;5273;51.290;6.918;2023-08-08T12:59:34;3.83;;;2.20;;
10450;SDS011;5273;51.290;6.918;2023-08-08T13:02:03;6.43;;;2.35;;
10450;SDS011;5273;51.290;6.918;2023-08-08T13:04:36;6.60;;;2.22;;
10450;SDS011;5273;51.290;6.918;2023-08-08T13:07:11;4.15;;;2.13;;
10450;SDS011;5273;51.290;6.918;2023-08-08T13:09:49;4.43;;;2.22;;
10450;SDS011;5273;51.290;6.918;2023-08-08T13:12:25;3.40;;;1.83;;
10450;SDS011;5273;51.290;6.918;2023-08-08T13:14:52;3.13;;;2.38;;
10450;SDS011;5273;51.290;6.918;2023-08-08T13:17:19;5.07;;;2.47;;
10450;SDS011;5273;51.290;6.918;2023-08-08T13:19:45;4.05;;;2.45;;
10450;SDS011;5273;51.290;6.918;2023-08-08T13:22:14;4.60;;;2.30;;
10450;SDS011;5273;51.290;6.918;2023-08-08T13:24:40;4.13;;;2.28;;
10450;SDS011;5273;51.290;6.918;2023-08-08T13:27:06;4.05;;;2.10;;
10450;SDS011;5273;51.290;6.918;2023-08-08T13:29:33;4.68;;;2.63;;
10450;SDS011;5273;51.290;6.918;2023-08-08T13:32:03;4.75;;;2.50;;
10450;SDS011;5273;51.290;6.918;2023-08-08T13:34:30;3.40;;;2.08;;
10450;SDS011;5273;51.290;6.918;2023-08-08T13:36:57;3.03;;;2.30;;
10450;SDS011;5273;51.290;6.918;2023-08-08T13:39:25;5.30;;;2.63;;
10450;SDS011;5273;51.290;6.918;2023-08-08T13:41:52;4.40;;;2.72;;
10450;SDS011;5273;51.290;6.918;2023-08-08T13:44:18;5.60;;;2.10;;
10450;SDS011;5273;51.290;6.918;2023-08-08T13:46:45;4.93;;;2.50;;
10450;SDS011;5273;51.290;6.918;2023-08-08T13:49:23;4.68;;;2.63;;
10450;SDS011;5273;51.290;6.918;2023-08-08T13:51:59;3.92;;;2.10;;
10450;SDS011;5273;51.290;6.918;2023-08-08T13:54:29;4.38;;;2.28;;
10450;SDS011;5273;51.290;6.918;2023-08-08T13:56:56;2.95;;;1.95;;
10450;SDS011;5273;51.290;6.918;2023-08-08T13:59:31;6.38;;;2.75;;
10450;SDS011;5273;51.290;6.918;2023-08-08T14:02:01;2.75;;;2.17;;
10450;SDS011;5273;51.290;6.918;2023-08-08T14:04:37;4.10;;;2.45;;
10450;SDS011;5273;51.290;6.918;2023-08-08T14:07:08;5.28;;;2.20;;
10450;SDS011;5273;51.290;6.918;2023-08-08T14:09:37;5.10;;;2.67;;
10450;SDS011;5273;51.290;6.918;2023-08-08T14:12:10;3.28;;;2.15;;
10450;SDS011;5273;51.290;6.918;2023-08-08T14:14:37;6.65;;;2.40;;
10450;SDS011;5273;51.290;6.918;2023-08-08T14:17:04;6.70;;;2.35;;
10450;SDS011;5273;51.290;6.918;2023-08-08T14:19:32;4.43;;;2.45;;
10450;SDS011;5273;51.290;6.918;2023-08-08T14:21:58;2.72;;;2.00;;
10450;SDS011;5273;51.290;6.918;2023-08-08T14:24:25;7.35;;;2.80;;
10450;SDS011;5273;51.290;6.918;2023-08-08T14:26:53;7.88;;;2.55;;
10450;SDS011;5273;51.290;6.918;2023-08-08T14:29:20;4.28;;;2.60;;
10450;SDS011;5273;51.290;6.918;2023-08-08T14:31:47;4.82;;;2.30;;
10450;SDS011;5273;51.290;6.918;2023-08-08T14:34:14;3.90;;;2.30;;
10450;SDS011;5273;51.290;6.918;2023-08-08T14:36:41;2.45;;;1.90;;
10450;SDS011;5273;51.290;6.918;2023-08-08T14:39:08;3.13;;;2.00;;
10450;SDS011;5273;51.290;6.918;2023-08-08T14:41:35;5.28;;;2.28;;
10450;SDS011;5273;51.290;6.918;2023-08-08T14:44:03;3.05;;;2.00;;
10450;SDS011;5273;51.290;6.918;2023-08-08T14:46:30;3.70;;;2.20;;
10450;SDS011;5273;51.290;6.918;2023-08-08T14:48:58;3.30;;;2.28;;
10450;SDS011;5273;51.290;6.918;2023-08-08T14:51:25;3.78;;;1.88;;
10450;SDS011;5273;51.290;6.918;2023-08-08T14:53:53;5.15;;;2.15;;
10450;SDS011;5273;51.290;6.918;2023-08-08T14:56:19;5.13;;;2.03;;
10450;SDS011;5273;51.290;6.918;2023-08-08T14:58:46;3.83;;;2.33;;
10450;SDS011;5273;51.290;6.918;2023-08-08T15:01:14;2.40;;;2.00;;
10450;SDS011;5273;51.290;6.918;2023-08-08T15:03:41;4.88;;;2.10;;
10450;SDS011;5273;51.290;6.918;2023-08-08T15:06:08;4.18;;;1.95;;
10450;SDS011;5273;51.290;6.918;2023-08-08T15:08:35;7.07;;;2.10;;